Terminal Aerodrome Forecast
Issued by NWS

Home | Current Version | Previous Version | Text Only | Print | Product List | Glossary Off
Versions: 1 2 3 4 5 6 7 8 9 10 11 12 13 14 15 16 17 18 19 20 21 22 23 24

000
FTUS43 KMPX 232049 AAC
TAFRWF
TAF AMD
KRWF 232049Z 2321/2418 33010KT P6SM VCSH OVC035
      TEMPO 2321/2323 5SM -SHRA BKN035 OVC060
     FM240000 03004KT P6SM BKN035 BKN250
     FM240600 15010KT P6SM BKN250
     FM241600 18014G23KT P6SM SCT250=

USA.gov is the U.S. government's official web portal to all federal, state and local government web resources and services.